sensor_id;sensor_type;location;lat;lon;timestamp;pressure;altitude;pressure_sealevel;temperature;humidity
58385;BME280;44185;47.844;8.966;2022-08-04T00:00:16;96094.56;;;18.47;84.93
58385;BME280;44185;47.844;8.966;2022-08-04T00:02:51;96091.22;;;18.30;82.98
58385;BME280;44185;47.844;8.966;2022-08-04T00:05:28;96097.69;;;18.36;84.31
58385;BME280;44185;47.844;8.966;2022-08-04T00:08:00;96090.56;;;18.43;82.06
58385;BME280;44185;47.844;8.966;2022-08-04T00:10:32;96094.09;;;18.28;83.19
58385;BME280;44185;47.844;8.966;2022-08-04T00:12:59;96093.69;;;18.16;84.48
58385;BME280;44185;47.844;8.966;2022-08-04T00:15:28;96090.00;;;18.17;85.72
58385;BME280;44185;47.844;8.966;2022-08-04T00:17:58;96091.19;;;18.15;85.48
58385;BME280;44185;47.844;8.966;2022-08-04T00:20:28;96088.50;;;17.99;85.94
58385;BME280;44185;47.844;8.966;2022-08-04T00:22:55;96094.25;;;17.96;86.31
58385;BME280;44185;47.844;8.966;2022-08-04T00:25:22;96095.63;;;18.07;85.78
58385;BME280;44185;47.844;8.966;2022-08-04T00:27:49;96097.63;;;18.05;85.55
58385;BME280;44185;47.844;8.966;2022-08-04T00:30:15;96104.59;;;18.15;85.26
58385;BME280;44185;47.844;8.966;2022-08-04T00:32:41;96103.75;;;17.99;85.46
58385;BME280;44185;47.844;8.966;2022-08-04T00:35:07;96098.75;;;17.96;85.73
58385;BME280;44185;47.844;8.966;2022-08-04T00:37:34;96104.66;;;17.91;86.20
58385;BME280;44185;47.844;8.966;2022-08-04T00:40:08;96108.06;;;17.85;86.77
58385;BME280;44185;47.844;8.966;2022-08-04T00:42:41;96100.66;;;17.87;86.49
58385;BME280;44185;47.844;8.966;2022-08-04T00:48:11;96102.34;;;17.88;86.89
58385;BME280;44185;47.844;8.966;2022-08-04T00:50:44;96102.56;;;17.63;85.92
58385;BME280;44185;47.844;8.966;2022-08-04T00:53:18;96105.28;;;17.54;88.34
58385;BME280;44185;47.844;8.966;2022-08-04T00:58:42;96098.16;;;17.47;88.90
58385;BME280;44185;47.844;8.966;2022-08-04T01:01:23;96100.69;;;17.48;88.57
58385;BME280;44185;47.844;8.966;2022-08-04T01:04:01;96096.19;;;17.49;88.90
58385;BME280;44185;47.844;8.966;2022-08-04T01:06:36;96099.53;;;17.66;87.82
58385;BME280;44185;47.844;8.966;2022-08-04T01:09:21;96101.66;;;17.71;87.25
58385;BME280;44185;47.844;8.966;2022-08-04T01:12:01;96103.09;;;17.58;87.94
58385;BME280;44185;47.844;8.966;2022-08-04T01:14:46;96100.75;;;17.40;88.60
58385;BME280;44185;47.844;8.966;2022-08-04T01:17:24;96107.00;;;17.32;88.90
58385;BME280;44185;47.844;8.966;2022-08-04T01:19:53;96106.38;;;17.45;88.00
58385;BME280;44185;47.844;8.966;2022-08-04T01:25:40;96098.88;;;17.25;90.29
58385;BME280;44185;47.844;8.966;2022-08-04T01:28:26;96106.00;;;17.33;89.24
58385;BME280;44185;47.844;8.966;2022-08-04T01:30:56;96103.31;;;17.33;89.95
58385;BME280;44185;47.844;8.966;2022-08-04T01:33:22;96096.47;;;17.30;89.31
58385;BME280;44185;47.844;8.966;2022-08-04T01:35:54;96093.69;;;17.15;89.94
58385;BME280;44185;47.844;8.966;2022-08-04T01:38:24;96090.44;;;17.05;90.94
58385;BME280;44185;47.844;8.966;2022-08-04T01:40:55;96093.44;;;17.01;90.53
58385;BME280;44185;47.844;8.966;2022-08-04T01:43:22;96096.50;;;16.98;90.79
58385;BME280;44185;47.844;8.966;2022-08-04T01:45:50;96091.63;;;17.02;91.16
58385;BME280;44185;47.844;8.966;2022-08-04T01:48:17;96095.22;;;17.18;90.30
58385;BME280;44185;47.844;8.966;2022-08-04T01:50:47;96084.31;;;17.28;89.08
58385;BME280;44185;47.844;8.966;2022-08-04T01:53:18;96087.44;;;17.31;88.96
58385;BME280;44185;47.844;8.966;2022-08-04T01:55:45;96088.63;;;17.29;88.88
58385;BME280;44185;47.844;8.966;2022-08-04T01:58:15;96088.47;;;17.30;88.77
58385;BME280;44185;47.844;8.966;2022-08-04T02:00:47;96097.88;;;17.18;88.82
58385;BME280;44185;47.844;8.966;2022-08-04T02:03:17;96089.47;;;16.97;89.51
58385;BME280;44185;47.844;8.966;2022-08-04T02:05:46;96089.53;;;16.89;90.05
58385;BME280;44185;47.844;8.966;2022-08-04T02:08:20;96086.69;;;16.90;90.52
58385;BME280;44185;47.844;8.966;2022-08-04T02:10:53;96080.47;;;16.98;89.64
58385;BME280;44185;47.844;8.966;2022-08-04T02:13:25;96076.50;;;16.86;89.69
58385;BME280;44185;47.844;8.966;2022-08-04T02:15:57;96086.53;;;16.84;91.17
58385;BME280;44185;47.844;8.966;2022-08-04T02:18:30;96082.09;;;16.76;90.88
58385;BME280;44185;47.844;8.966;2022-08-04T02:20:58;96075.69;;;16.85;90.19
58385;BME280;44185;47.844;8.966;2022-08-04T02:23:29;96081.28;;;16.67;91.78
58385;BME280;44185;47.844;8.966;2022-08-04T02:25:57;96076.78;;;16.67;92.77
58385;BME280;44185;47.844;8.966;2022-08-04T02:28:30;96088.56;;;16.50;94.05
58385;BME280;44185;47.844;8.966;2022-08-04T02:31:03;96079.19;;;16.54;93.51
58385;BME280;44185;47.844;8.966;2022-08-04T02:33:36;96085.00;;;16.58;93.39
58385;BME280;44185;47.844;8.966;2022-08-04T02:36:03;96074.63;;;16.63;93.55
58385;BME280;44185;47.844;8.966;2022-08-04T02:38:41;96085.03;;;16.49;92.57
58385;BME280;44185;47.844;8.966;2022-08-04T02:41:13;96085.13;;;16.64;93.17
58385;BME280;44185;47.844;8.966;2022-08-04T02:43:41;96082.78;;;16.70;91.67
58385;BME280;44185;47.844;8.966;2022-08-04T02:46:07;96079.50;;;16.59;91.88
58385;BME280;44185;47.844;8.966;2022-08-04T02:48:37;96075.81;;;16.60;91.29
58385;BME280;44185;47.844;8.966;2022-08-04T02:51:05;96081.13;;;16.68;91.13
58385;BME280;44185;47.844;8.966;2022-08-04T02:53:32;96080.59;;;16.73;91.25
58385;BME280;44185;47.844;8.966;2022-08-04T02:56:01;96085.09;;;16.73;90.28
58385;BME280;44185;47.844;8.966;2022-08-04T02:58:29;96085.19;;;16.56;91.66
58385;BME280;44185;47.844;8.966;2022-08-04T03:00:58;96091.56;;;16.47;92.27
58385;BME280;44185;47.844;8.966;2022-08-04T03:03:30;96077.25;;;16.39;92.47
58385;BME280;44185;47.844;8.966;2022-08-04T03:06:31;96077.00;;;16.17;93.83
58385;BME280;44185;47.844;8.966;2022-08-04T03:12:01;96069.81;;;16.18;92.63
58385;BME280;44185;47.844;8.966;2022-08-04T03:14:53;96073.66;;;16.23;93.87
58385;BME280;44185;47.844;8.966;2022-08-04T03:17:52;96078.16;;;16.23;94.38
58385;BME280;44185;47.844;8.966;2022-08-04T03:26:56;96076.66;;;16.04;93.96
58385;BME280;44185;47.844;8.966;2022-08-04T03:29:59;96083.69;;;16.13;93.84
58385;BME280;44185;47.844;8.966;2022-08-04T03:35:42;96086.03;;;15.99;94.53
58385;BME280;44185;47.844;8.966;2022-08-04T03:38:33;96089.03;;;16.13;94.99
58385;BME280;44185;47.844;8.966;2022-08-04T03:41:26;96093.00;;;16.17;94.02
58385;BME280;44185;47.844;8.966;2022-08-04T03:44:21;96089.00;;;16.21;91.62
58385;BME280;44185;47.844;8.966;2022-08-04T03:50:10;96085.16;;;16.24;90.47
58385;BME280;44185;47.844;8.966;2022-08-04T03:53:25;96086.97;;;16.32;91.03
58385;BME280;44185;47.844;8.966;2022-08-04T04:02:03;96083.81;;;16.03;93.36
58385;BME280;44185;47.844;8.966;2022-08-04T04:10:41;96083.38;;;15.91;95.07
58385;BME280;44185;47.844;8.966;2022-08-04T04:13:27;96086.19;;;15.98;94.74
58385;BME280;44185;47.844;8.966;2022-08-04T04:19:09;96085.50;;;16.04;92.71
58385;BME280;44185;47.844;8.966;2022-08-04T04:21:54;96091.69;;;15.96;92.86
58385;BME280;44185;47.844;8.966;2022-08-04T04:24:32;96093.22;;;15.90;93.06
58385;BME280;44185;47.844;8.966;2022-08-04T04:27:05;96097.06;;;15.79;93.96
58385;BME280;44185;47.844;8.966;2022-08-04T04:30:01;96090.59;;;15.74;94.35
58385;BME280;44185;47.844;8.966;2022-08-04T04:32:34;96092.88;;;15.77;94.69
58385;BME280;44185;47.844;8.966;2022-08-04T04:35:10;96093.72;;;15.77;94.16
58385;BME280;44185;47.844;8.966;2022-08-04T04:37:55;96095.72;;;15.84;94.40
58385;BME280;44185;47.844;8.966;2022-08-04T04:40:36;96092.38;;;15.90;94.15
58385;BME280;44185;47.844;8.966;2022-08-04T04:43:29;96091.69;;;15.96;93.69
58385;BME280;44185;47.844;8.966;2022-08-04T04:46:04;96097.69;;;15.98;93.76
58385;BME280;44185;47.844;8.966;2022-08-04T04:48:37;96098.72;;;15.97;94.01
58385;BME280;44185;47.844;8.966;2022-08-04T04:51:13;96105.38;;;15.93;94.33
58385;BME280;44185;47.844;8.966;2022-08-04T04:53:50;96098.88;;;15.87;95.56
58385;BME280;44185;47.844;8.966;2022-08-04T04:56:21;96104.84;;;15.98;94.74
58385;BME280;44185;47.844;8.966;2022-08-04T04:58:51;96108.56;;;16.14;94.39
58385;BME280;44185;47.844;8.966;2022-08-04T05:01:37;96107.50;;;16.23;93.65
58385;BME280;44185;47.844;8.966;2022-08-04T05:04:23;96111.31;;;16.37;92.74
58385;BME280;44185;47.844;8.966;2022-08-04T05:07:18;96113.59;;;16.49;92.12
58385;BME280;44185;47.844;8.966;2022-08-04T05:09:58;96111.72;;;16.58;91.60
58385;BME280;44185;47.844;8.966;2022-08-04T05:12:36;96108.00;;;16.67;91.56
58385;BME280;44185;47.844;8.966;2022-08-04T05:15:06;96105.44;;;16.82;92.05
58385;BME280;44185;47.844;8.966;2022-08-04T05:17:35;96120.91;;;16.95;91.62
58385;BME280;44185;47.844;8.966;2022-08-04T05:20:03;96115.97;;;17.07;91.20
58385;BME280;44185;47.844;8.966;2022-08-04T05:22:36;96128.28;;;17.25;90.54
58385;BME280;44185;47.844;8.966;2022-08-04T05:25:07;96121.78;;;17.43;87.88
58385;BME280;44185;47.844;8.966;2022-08-04T05:27:40;96121.22;;;17.71;86.87
58385;BME280;44185;47.844;8.966;2022-08-04T05:30:08;96120.25;;;18.03;84.33
58385;BME280;44185;47.844;8.966;2022-08-04T05:32:40;96117.91;;;18.38;84.74
58385;BME280;44185;47.844;8.966;2022-08-04T05:35:10;96124.06;;;18.69;82.51
58385;BME280;44185;47.844;8.966;2022-08-04T05:37:39;96126.97;;;19.05;81.66
58385;BME280;44185;47.844;8.966;2022-08-04T05:40:08;96126.25;;;19.33;78.68
58385;BME280;44185;47.844;8.966;2022-08-04T05:42:36;96128.81;;;19.41;77.70
58385;BME280;44185;47.844;8.966;2022-08-04T05:45:03;96129.69;;;19.71;76.59
58385;BME280;44185;47.844;8.966;2022-08-04T05:47:30;96133.75;;;19.88;75.17
58385;BME280;44185;47.844;8.966;2022-08-04T05:49:57;96137.31;;;20.18;73.41
58385;BME280;44185;47.844;8.966;2022-08-04T05:52:23;96133.13;;;20.44;71.79
58385;BME280;44185;47.844;8.966;2022-08-04T05:54:51;96135.25;;;20.55;71.91
58385;BME280;44185;47.844;8.966;2022-08-04T05:57:17;96122.06;;;20.61;72.53
58385;BME280;44185;47.844;8.966;2022-08-04T05:59:45;96123.19;;;20.80;71.88
58385;BME280;44185;47.844;8.966;2022-08-04T06:02:13;96134.09;;;21.14;72.19
58385;BME280;44185;47.844;8.966;2022-08-04T06:04:42;96130.84;;;21.46;71.26
58385;BME280;44185;47.844;8.966;2022-08-04T06:07:09;96131.47;;;21.62;69.03
58385;BME280;44185;47.844;8.966;2022-08-04T06:09:35;96131.28;;;21.70;68.37
58385;BME280;44185;47.844;8.966;2022-08-04T06:12:06;96130.25;;;21.98;68.68
58385;BME280;44185;47.844;8.966;2022-08-04T06:14:38;96134.41;;;22.21;67.18
58385;BME280;44185;47.844;8.966;2022-08-04T06:17:06;96130.88;;;22.07;67.22
58385;BME280;44185;47.844;8.966;2022-08-04T06:19:33;96127.09;;;22.36;66.63
58385;BME280;44185;47.844;8.966;2022-08-04T06:22:02;96132.03;;;22.59;64.98
58385;BME280;44185;47.844;8.966;2022-08-04T06:24:30;96133.47;;;22.75;65.04
58385;BME280;44185;47.844;8.966;2022-08-04T06:26:56;96134.69;;;22.80;64.34
58385;BME280;44185;47.844;8.966;2022-08-04T06:29:24;96134.84;;;22.98;63.23
58385;BME280;44185;47.844;8.966;2022-08-04T06:31:52;96132.94;;;22.99;63.96
58385;BME280;44185;47.844;8.966;2022-08-04T06:34:19;96133.94;;;23.11;63.91
58385;BME280;44185;47.844;8.966;2022-08-04T06:36:46;96137.03;;;23.15;63.43
58385;BME280;44185;47.844;8.966;2022-08-04T06:39:12;96136.81;;;23.49;63.15
58385;BME280;44185;47.844;8.966;2022-08-04T06:41:38;96141.88;;;23.78;61.36
58385;BME280;44185;47.844;8.966;2022-08-04T06:44:08;96140.88;;;23.98;60.77
58385;BME280;44185;47.844;8.966;2022-08-04T06:46:39;96140.69;;;24.44;60.99
58385;BME280;44185;47.844;8.966;2022-08-04T06:49:06;96139.25;;;24.79;58.90
58385;BME280;44185;47.844;8.966;2022-08-04T06:51:33;96145.44;;;24.86;57.07
58385;BME280;44185;47.844;8.966;2022-08-04T06:53:59;96148.50;;;24.52;57.49
58385;BME280;44185;47.844;8.966;2022-08-04T06:56:26;96149.31;;;24.53;58.73
58385;BME280;44185;47.844;8.966;2022-08-04T06:58:52;96143.38;;;25.19;56.87
58385;BME280;44185;47.844;8.966;2022-08-04T07:01:20;96137.97;;;25.62;55.44
58385;BME280;44185;47.844;8.966;2022-08-04T07:03:48;96143.47;;;25.86;53.20
58385;BME280;44185;47.844;8.966;2022-08-04T07:06:13;96143.47;;;25.98;53.57
58385;BME280;44185;47.844;8.966;2022-08-04T07:08:40;96144.44;;;25.92;53.59
58385;BME280;44185;47.844;8.966;2022-08-04T07:11:06;96141.97;;;26.27;51.92
58385;BME280;44185;47.844;8.966;2022-08-04T07:13:32;96133.81;;;26.15;51.90
58385;BME280;44185;47.844;8.966;2022-08-04T07:15:58;96142.09;;;26.32;52.64
58385;BME280;44185;47.844;8.966;2022-08-04T07:18:24;96139.13;;;26.33;52.69
58385;BME280;44185;47.844;8.966;2022-08-04T07:20:51;96136.78;;;26.49;51.07
58385;BME280;44185;47.844;8.966;2022-08-04T07:23:22;96136.19;;;26.71;51.04
58385;BME280;44185;47.844;8.966;2022-08-04T07:25:52;96141.47;;;26.78;50.88
58385;BME280;44185;47.844;8.966;2022-08-04T07:28:17;96132.44;;;27.14;50.33
58385;BME280;44185;47.844;8.966;2022-08-04T07:30:43;96144.56;;;27.11;48.76
58385;BME280;44185;47.844;8.966;2022-08-04T07:33:09;96134.25;;;26.96;48.78
58385;BME280;44185;47.844;8.966;2022-08-04T07:35:36;96139.34;;;26.80;49.63
58385;BME280;44185;47.844;8.966;2022-08-04T07:38:03;96129.97;;;26.59;49.56
58385;BME280;44185;47.844;8.966;2022-08-04T07:40:29;96137.97;;;26.29;49.35
58385;BME280;44185;47.844;8.966;2022-08-04T07:42:55;96136.59;;;26.92;47.48
58385;BME280;44185;47.844;8.966;2022-08-04T07:45:22;96138.41;;;27.28;47.54
58385;BME280;44185;47.844;8.966;2022-08-04T07:47:49;96138.31;;;27.23;47.64
58385;BME280;44185;47.844;8.966;2022-08-04T07:50:15;96148.09;;;28.00;46.07
58385;BME280;44185;47.844;8.966;2022-08-04T07:52:41;96141.59;;;28.40;45.06
58385;BME280;44185;47.844;8.966;2022-08-04T07:55:08;96149.22;;;28.78;44.66
58385;BME280;44185;47.844;8.966;2022-08-04T07:57:35;96140.25;;;29.00;43.66
58385;BME280;44185;47.844;8.966;2022-08-04T08:00:01;96145.41;;;29.02;42.16
58385;BME280;44185;47.844;8.966;2022-08-04T08:02:27;96148.28;;;29.35;43.04
58385;BME280;44185;47.844;8.966;2022-08-04T08:04:53;96133.41;;;29.48;42.83
58385;BME280;44185;47.844;8.966;2022-08-04T08:07:19;96138.75;;;28.70;43.82
58385;BME280;44185;47.844;8.966;2022-08-04T08:09:44;96132.50;;;28.12;44.53
58385;BME280;44185;47.844;8.966;2022-08-04T08:12:11;96127.31;;;28.90;45.12
58385;BME280;44185;47.844;8.966;2022-08-04T08:14:37;96129.75;;;29.37;44.19
58385;BME280;44185;47.844;8.966;2022-08-04T08:17:03;96125.09;;;29.09;43.64
58385;BME280;44185;47.844;8.966;2022-08-04T08:19:29;96135.81;;;29.16;45.36
58385;BME280;44185;47.844;8.966;2022-08-04T08:21:55;96123.31;;;29.76;43.12
58385;BME280;44185;47.844;8.966;2022-08-04T08:24:20;96125.53;;;30.12;42.49
58385;BME280;44185;47.844;8.966;2022-08-04T08:26:46;96130.47;;;30.59;41.72
58385;BME280;44185;47.844;8.966;2022-08-04T08:29:13;96135.66;;;30.60;40.94
58385;BME280;44185;47.844;8.966;2022-08-04T08:31:39;96128.13;;;30.83;41.45
58385;BME280;44185;47.844;8.966;2022-08-04T08:34:04;96129.28;;;28.95;43.79
58385;BME280;44185;47.844;8.966;2022-08-04T08:36:33;96125.44;;;28.51;45.95
58385;BME280;44185;47.844;8.966;2022-08-04T08:39:00;96124.72;;;29.23;45.03
58385;BME280;44185;47.844;8.966;2022-08-04T08:44:40;96134.25;;;29.48;44.12
58385;BME280;44185;47.844;8.966;2022-08-04T08:47:21;96124.16;;;29.21;44.76
58385;BME280;44185;47.844;8.966;2022-08-04T08:50:03;96135.00;;;29.71;42.70
58385;BME280;44185;47.844;8.966;2022-08-04T08:52:48;96128.72;;;29.71;44.16
58385;BME280;44185;47.844;8.966;2022-08-04T08:55:28;96124.63;;;30.01;43.33
58385;BME280;44185;47.844;8.966;2022-08-04T08:58:09;96133.50;;;29.86;43.80
58385;BME280;44185;47.844;8.966;2022-08-04T09:00:46;96131.09;;;30.28;41.65
58385;BME280;44185;47.844;8.966;2022-08-04T09:06:37;96125.16;;;29.15;44.78
58385;BME280;44185;47.844;8.966;2022-08-04T09:12:08;96117.88;;;29.48;45.03
58385;BME280;44185;47.844;8.966;2022-08-04T09:14:43;96127.59;;;29.39;44.42
58385;BME280;44185;47.844;8.966;2022-08-04T09:17:19;96129.50;;;29.11;45.10
58385;BME280;44185;47.844;8.966;2022-08-04T09:19:52;96127.09;;;29.42;44.70
58385;BME280;44185;47.844;8.966;2022-08-04T09:22:27;96124.22;;;29.54;44.43
58385;BME280;44185;47.844;8.966;2022-08-04T09:24:59;96130.16;;;29.79;44.56
58385;BME280;44185;47.844;8.966;2022-08-04T09:27:32;96128.25;;;29.01;47.32
58385;BME280;44185;47.844;8.966;2022-08-04T09:30:03;96128.81;;;29.26;46.55
58385;BME280;44185;47.844;8.966;2022-08-04T09:32:33;96119.22;;;30.06;45.81
58385;BME280;44185;47.844;8.966;2022-08-04T09:35:12;96118.88;;;29.97;45.22
58385;BME280;44185;47.844;8.966;2022-08-04T09:37:43;96128.38;;;29.62;44.71
58385;BME280;44185;47.844;8.966;2022-08-04T09:40:18;96120.88;;;29.74;45.29
58385;BME280;44185;47.844;8.966;2022-08-04T09:42:50;96114.94;;;29.83;44.73
58385;BME280;44185;47.844;8.966;2022-08-04T09:45:23;96117.25;;;29.41;45.12
58385;BME280;44185;47.844;8.966;2022-08-04T09:47:57;96122.31;;;29.82;45.03
58385;BME280;44185;47.844;8.966;2022-08-04T09:50:31;96116.28;;;29.52;46.04
58385;BME280;44185;47.844;8.966;2022-08-04T09:53:20;96111.19;;;29.94;44.33
58385;BME280;44185;47.844;8.966;2022-08-04T09:56:08;96108.06;;;30.13;44.50
58385;BME280;44185;47.844;8.966;2022-08-04T09:58:43;96113.09;;;29.89;43.45
58385;BME280;44185;47.844;8.966;2022-08-04T10:01:14;96110.59;;;29.87;44.83
58385;BME280;44185;47.844;8.966;2022-08-04T10:03:44;96110.28;;;29.83;44.62
58385;BME280;44185;47.844;8.966;2022-08-04T10:06:28;96099.19;;;29.90;44.39
58385;BME280;44185;47.844;8.966;2022-08-04T10:09:04;96098.72;;;29.71;44.90
58385;BME280;44185;47.844;8.966;2022-08-04T10:11:45;96100.28;;;29.61;45.10
58385;BME280;44185;47.844;8.966;2022-08-04T10:14:33;96088.63;;;29.71;45.44
58385;BME280;44185;47.844;8.966;2022-08-04T10:17:15;96094.78;;;29.56;45.21
58385;BME280;44185;47.844;8.966;2022-08-04T10:19:52;96082.69;;;29.74;45.07
58385;BME280;44185;47.844;8.966;2022-08-04T10:22:20;96086.63;;;29.89;44.38
58385;BME280;44185;47.844;8.966;2022-08-04T10:24:57;96086.56;;;30.22;43.24
58385;BME280;44185;47.844;8.966;2022-08-04T10:27:31;96082.16;;;30.59;42.08
58385;BME280;44185;47.844;8.966;2022-08-04T10:30:03;96087.91;;;30.19;43.63
58385;BME280;44185;47.844;8.966;2022-08-04T10:32:33;96085.41;;;30.56;42.17
58385;BME280;44185;47.844;8.966;2022-08-04T10:35:08;96084.47;;;30.35;43.58
58385;BME280;44185;47.844;8.966;2022-08-04T10:37:39;96083.06;;;30.32;42.82
58385;BME280;44185;47.844;8.966;2022-08-04T10:40:10;96069.75;;;30.36;42.78
58385;BME280;44185;47.844;8.966;2022-08-04T10:42:41;96071.13;;;30.33;43.93
58385;BME280;44185;47.844;8.966;2022-08-04T10:45:16;96072.34;;;30.63;43.37
58385;BME280;44185;47.844;8.966;2022-08-04T10:47:57;96066.69;;;30.27;42.24
58385;BME280;44185;47.844;8.966;2022-08-04T10:50:26;96069.66;;;30.20;42.33
58385;BME280;44185;47.844;8.966;2022-08-04T10:52:54;96064.06;;;30.48;42.83
58385;BME280;44185;47.844;8.966;2022-08-04T10:55:27;96062.75;;;30.56;42.69
58385;BME280;44185;47.844;8.966;2022-08-04T10:57:59;96061.13;;;30.55;41.65
58385;BME280;44185;47.844;8.966;2022-08-04T11:00:26;96062.81;;;30.71;42.69
58385;BME280;44185;47.844;8.966;2022-08-04T11:02:56;96062.28;;;30.74;40.97
58385;BME280;44185;47.844;8.966;2022-08-04T11:05:29;96048.38;;;30.81;40.21
58385;BME280;44185;47.844;8.966;2022-08-04T11:07:59;96062.75;;;30.61;40.89
58385;BME280;44185;47.844;8.966;2022-08-04T11:10:28;96055.13;;;30.63;41.25
58385;BME280;44185;47.844;8.966;2022-08-04T11:13:00;96054.84;;;30.59;40.90
58385;BME280;44185;47.844;8.966;2022-08-04T11:15:32;96046.44;;;30.77;39.64
58385;BME280;44185;47.844;8.966;2022-08-04T11:18:05;96050.38;;;31.07;39.69
58385;BME280;44185;47.844;8.966;2022-08-04T11:20:39;96045.19;;;31.05;40.60
58385;BME280;44185;47.844;8.966;2022-08-04T11:23:08;96044.94;;;31.17;40.11
58385;BME280;44185;47.844;8.966;2022-08-04T11:25:40;96047.13;;;31.26;40.48
58385;BME280;44185;47.844;8.966;2022-08-04T11:28:13;96046.31;;;31.20;39.16
58385;BME280;44185;47.844;8.966;2022-08-04T11:30:45;96049.03;;;31.15;38.47
58385;BME280;44185;47.844;8.966;2022-08-04T11:33:22;96041.66;;;31.15;37.75
58385;BME280;44185;47.844;8.966;2022-08-04T11:35:59;96042.75;;;31.40;37.46
58385;BME280;44185;47.844;8.966;2022-08-04T11:38:31;96036.75;;;31.38;38.09
58385;BME280;44185;47.844;8.966;2022-08-04T11:41:03;96038.16;;;31.57;37.75
58385;BME280;44185;47.844;8.966;2022-08-04T11:43:34;96043.06;;;31.81;38.55
58385;BME280;44185;47.844;8.966;2022-08-04T11:46:07;96038.94;;;31.99;36.28
58385;BME280;44185;47.844;8.966;2022-08-04T11:48:36;96042.47;;;32.00;36.78
58385;BME280;44185;47.844;8.966;2022-08-04T11:51:04;96037.84;;;31.95;36.77
58385;BME280;44185;47.844;8.966;2022-08-04T11:53:31;96032.91;;;32.02;36.03
58385;BME280;44185;47.844;8.966;2022-08-04T11:56:01;96035.97;;;31.80;35.53
58385;BME280;44185;47.844;8.966;2022-08-04T11:58:27;96042.47;;;32.00;36.58
58385;BME280;44185;47.844;8.966;2022-08-04T12:00:57;96043.31;;;32.00;35.44
58385;BME280;44185;47.844;8.966;2022-08-04T12:03:34;96036.69;;;32.33;35.26
58385;BME280;44185;47.844;8.966;2022-08-04T12:06:21;96041.63;;;32.25;35.26
58385;BME280;44185;47.844;8.966;2022-08-04T12:09:06;96032.00;;;32.38;33.58
58385;BME280;44185;47.844;8.966;2022-08-04T12:11:42;96027.72;;;32.11;33.16
58385;BME280;44185;47.844;8.966;2022-08-04T12:17:05;96022.25;;;32.83;32.69
58385;BME280;44185;47.844;8.966;2022-08-04T12:19:39;96022.06;;;32.58;32.43
58385;BME280;44185;47.844;8.966;2022-08-04T12:22:13;96024.78;;;32.63;31.58
58385;BME280;44185;47.844;8.966;2022-08-04T12:24:43;96023.19;;;32.52;32.33
58385;BME280;44185;47.844;8.966;2022-08-04T12:27:13;96025.09;;;32.51;31.85
58385;BME280;44185;47.844;8.966;2022-08-04T12:29:40;96018.78;;;32.61;31.87
58385;BME280;44185;47.844;8.966;2022-08-04T12:32:16;96018.88;;;32.40;31.32
58385;BME280;44185;47.844;8.966;2022-08-04T12:34:45;96015.03;;;32.41;32.19
58385;BME280;44185;47.844;8.966;2022-08-04T12:37:26;96009.38;;;32.78;33.14
58385;BME280;44185;47.844;8.966;2022-08-04T12:39:58;96012.44;;;32.77;31.35
58385;BME280;44185;47.844;8.966;2022-08-04T12:42:31;96005.56;;;32.79;32.18
58385;BME280;44185;47.844;8.966;2022-08-04T12:45:03;96000.06;;;32.84;31.35
58385;BME280;44185;47.844;8.966;2022-08-04T12:47:31;95995.94;;;32.87;31.77
58385;BME280;44185;47.844;8.966;2022-08-04T12:50:02;95996.50;;;32.84;31.79
58385;BME280;44185;47.844;8.966;2022-08-04T12:52:30;95996.22;;;32.85;31.13
58385;BME280;44185;47.844;8.966;2022-08-04T12:54:57;95995.03;;;32.97;30.97
58385;BME280;44185;47.844;8.966;2022-08-04T12:57:23;95990.59;;;33.06;30.32
58385;BME280;44185;47.844;8.966;2022-08-04T12:59:49;95986.66;;;33.18;28.70
58385;BME280;44185;47.844;8.966;2022-08-04T13:02:17;95983.88;;;33.28;30.03
58385;BME280;44185;47.844;8.966;2022-08-04T13:04:48;95978.75;;;33.16;29.49
58385;BME280;44185;47.844;8.966;2022-08-04T13:07:22;95976.47;;;33.29;30.48
58385;BME280;44185;47.844;8.966;2022-08-04T13:09:51;95978.38;;;33.28;29.62
58385;BME280;44185;47.844;8.966;2022-08-04T13:12:19;95980.69;;;33.11;30.08
58385;BME280;44185;47.844;8.966;2022-08-04T13:14:49;95978.94;;;33.31;30.07
58385;BME280;44185;47.844;8.966;2022-08-04T13:17:16;95970.91;;;33.39;29.57
58385;BME280;44185;47.844;8.966;2022-08-04T13:19:45;95963.28;;;33.31;29.72
58385;BME280;44185;47.844;8.966;2022-08-04T13:22:11;95966.72;;;33.47;29.40
58385;BME280;44185;47.844;8.966;2022-08-04T13:24:38;95955.75;;;33.47;28.99
58385;BME280;44185;47.844;8.966;2022-08-04T13:27:08;95947.16;;;33.59;28.87
58385;BME280;44185;47.844;8.966;2022-08-04T13:29:37;95941.94;;;33.58;28.85
58385;BME280;44185;47.844;8.966;2022-08-04T13:32:04;95936.31;;;33.73;29.77
58385;BME280;44185;47.844;8.966;2022-08-04T13:34:31;95941.47;;;33.50;28.66
58385;BME280;44185;47.844;8.966;2022-08-04T13:36:58;95938.13;;;34.08;28.83
58385;BME280;44185;47.844;8.966;2022-08-04T13:39:25;95928.94;;;33.99;27.90
58385;BME280;44185;47.844;8.966;2022-08-04T13:41:56;95932.72;;;34.03;28.74
58385;BME280;44185;47.844;8.966;2022-08-04T13:44:27;95939.56;;;33.81;28.28
58385;BME280;44185;47.844;8.966;2022-08-04T13:46:55;95933.19;;;33.56;29.76
58385;BME280;44185;47.844;8.966;2022-08-04T13:49:23;95935.41;;;33.83;29.36
58385;BME280;44185;47.844;8.966;2022-08-04T13:51:50;95929.56;;;33.60;29.88
58385;BME280;44185;47.844;8.966;2022-08-04T13:54:16;95933.50;;;33.84;29.52
58385;BME280;44185;47.844;8.966;2022-08-04T13:56:46;95922.16;;;33.91;28.99
58385;BME280;44185;47.844;8.966;2022-08-04T13:59:13;95921.03;;;34.16;28.39
58385;BME280;44185;47.844;8.966;2022-08-04T14:01:44;95920.94;;;34.02;25.55
58385;BME280;44185;47.844;8.966;2022-08-04T14:04:14;95917.94;;;33.99;28.16
58385;BME280;44185;47.844;8.966;2022-08-04T14:06:49;95913.44;;;34.08;27.05
58385;BME280;44185;47.844;8.966;2022-08-04T14:09:16;95912.63;;;34.07;25.24
58385;BME280;44185;47.844;8.966;2022-08-04T14:11:43;95918.50;;;34.20;26.49
58385;BME280;44185;47.844;8.966;2022-08-04T14:14:13;95904.53;;;34.16;26.31
58385;BME280;44185;47.844;8.966;2022-08-04T14:16:55;95910.78;;;34.47;26.10